Ital Oriente — A8LN2 — position and weather

sailwx.info

Track history (hours):
 
Tides and Currents Weather Stations Pressure Air Temp Water Temp Dewpoint Dewpoint Depression Visibility Wind Speed Wind Dir Waves Ship Positions

Ital Oriente

Last reported at 2017-Sep-17 18:00 UTC. Time now 2017-Sep-22 18:55 UTC.
Position N 17°00' W 017°48'.

Length 227 m; draft 10.5 m.

Type: Cargo ship. MMSI: 636091278.

Wind from 300 at 12 knots

Barometer 1011.0 mb
Air temperature 28.0 ° C
Visibility: greater than 5.4 NM
Dewpoint 21.8 ° C
Water temperature 28.0 ° C

Date/timePositionNaut miles runAvg speedWind from/ knotsBaromVisibWave heightAir tempDewpointWater temp
2017-Sep-17 18:00N 17°00' W 017°48'7813.0 300 / 121011.0 5.4 28.021.828.0
2017-Sep-17 12:00N 18°18' W 017°54'24213.4 340 / 131013.210.8 27.020.826.9
2017-Sep-16 18:00N 22°18' W 017°24'8113.5 340 / 191011.0 5.4 25.021.123.0
2017-Sep-16 12:00N 23°36' W 017°00'8213.7 340 / 101014.1 5.4 25.120.423.1
2017-Sep-16 06:00N 24°42' W 016°06'3814.3 050 / 111011.0 5.4 22.017.121.0
2017-Sep-16 03:22N 25°15' W 015°47'1613.6
2017-Sep-16 02:12N 25°28' W 015°37'313.6
2017-Sep-16 01:58N 25°31' W 015°35'2813.8
2017-Sep-15 23:55N 25°54' W 015°17'614.2
2017-Sep-15 23:30N 25°59' W 015°13'714.5
2017-Sep-15 22:59N 26°05' W 015°08'714.6
2017-Sep-15 22:29N 26°11' W 015°04'1014.5
2017-Sep-15 21:50N 26°19' W 014°58'514.2
2017-Sep-15 21:28N 26°23' W 014°54'1014.1
2017-Sep-15 20:47N 26°31' W 014°48'413.8
2017-Sep-15 20:30N 26°34' W 014°45'713.7
2017-Sep-15 20:00N 26°40' W 014°41'713.7
2017-Sep-15 19:29N 26°46' W 014°36'613.6
2017-Sep-15 19:00N 26°51' W 014°32'713.4
2017-Sep-15 18:29N 26°57' W 014°28'613.4
2017-Sep-15 18:00N 27°02' W 014°24'713.2
2017-Sep-15 17:30N 27°07' W 014°20'713.1
2017-Sep-15 17:00N 27°13' W 014°16'713.2
2017-Sep-15 16:30N 27°18' W 014°11'713.3
2017-Sep-15 16:00N 27°24' W 014°07'713.6
2017-Sep-15 15:28N 27°30' W 014°02'613.6
2017-Sep-15 15:00N 27°35' W 013°58'713.5
2017-Sep-15 14:30N 27°40' W 013°54'713.7
2017-Sep-15 14:00N 27°46' W 013°49'713.7
2017-Sep-15 13:30N 27°51' W 013°45'713.6
2017-Sep-15 13:00N 27°57' W 013°40'713.5
2017-Sep-15 12:30N 28°03' W 013°36'713.8
2017-Sep-15 12:00N 28°08' W 013°32'713.8
2017-Sep-15 11:30N 28°14' W 013°27'713.6
2017-Sep-15 11:00N 28°20' W 013°23'713.7
2017-Sep-15 10:30N 28°25' W 013°18'713.6
2017-Sep-15 10:00N 28°31' W 013°14'713.6
2017-Sep-15 09:30N 28°37' W 013°10'713.5
2017-Sep-15 09:00N 28°42' W 013°06'713.9
2017-Sep-15 08:30N 28°48' W 013°01'918.1
2017-Sep-15 08:00N 28°55' W 012°55'713.9
2017-Sep-15 07:30N 29°01' W 012°51'713.4
2017-Sep-15 07:00N 29°07' W 012°46'713.3
2017-Sep-15 06:31N 29°12' W 012°42'713.4
2017-Sep-15 06:00N 29°18' W 012°38'713.4
2017-Sep-15 05:30N 29°23' W 012°33'713.6
2017-Sep-15 05:01N 29°29' W 012°29'713.8
2017-Sep-15 04:30N 29°35' W 012°25'713.6
2017-Sep-15 04:00N 29°40' W 012°20'713.5
2017-Sep-15 03:30N 29°46' W 012°16'913.8
2017-Sep-15 02:52N 29°53' W 012°10'514.1
2017-Sep-15 02:30N 29°57' W 012°07'714.1
2017-Sep-15 02:01N 30°03' W 012°02'713.8
2017-Sep-15 01:30N 30°08' W 011°57'713.8
2017-Sep-15 01:00N 30°14' W 011°53'713.7
2017-Sep-15 00:30N 30°20' W 011°48'713.7
2017-Sep-15 00:00N 30°25' W 011°44'713.5
2017-Sep-14 23:30N 30°31' W 011°39'713.9
2017-Sep-14 23:00N 30°36' W 011°34'713.9
2017-Sep-14 22:30N 30°42' W 011°29'813.5
2017-Sep-14 21:56N 30°48' W 011°24'614.0
2017-Sep-14 21:30N 30°53' W 011°20'714.1
2017-Sep-14 21:00N 30°59' W 011°16'714.6
2017-Sep-14 20:30N 31°05' W 011°11'714.8
2017-Sep-14 20:00N 31°10' W 011°05'714.1
2017-Sep-14 19:30N 31°16' W 011°00'713.8
2017-Sep-14 19:00N 31°22' W 010°56'713.7
2017-Sep-14 18:30N 31°27' W 010°51'714.0
2017-Sep-14 18:00N 31°33' W 010°46'714.1
2017-Sep-14 17:31N 31°39' W 010°42'714.0
2017-Sep-14 17:00N 31°45' W 010°37'713.8
2017-Sep-14 16:30N 31°50' W 010°33'713.8
2017-Sep-14 16:00N 31°56' W 010°28'713.9
2017-Sep-14 15:29N 32°02' W 010°23'613.6
2017-Sep-14 15:00N 32°07' W 010°19'713.5
2017-Sep-14 14:31N 32°13' W 010°14'713.6
2017-Sep-14 14:00N 32°19' W 010°09'713.8
2017-Sep-14 13:31N 32°24' W 010°05'713.9
2017-Sep-14 13:00N 32°30' W 010°00'713.9
2017-Sep-14 12:30N 32°36' W 009°55'2448.5
2017-Sep-14 12:00N 32°12' W 009°48'31167.9 020 / 131020.510.8 28.5 6.622.6
2017-Sep-14 11:48N 32°43' W 009°49'614.0
2017-Sep-14 11:22N 32°48' W 009°44'513.6
2017-Sep-14 10:59N 32°52' W 009°40'714.0
2017-Sep-14 10:29N 32°56' W 009°33'713.8
2017-Sep-14 09:59N 33°00' W 009°26'714.0
2017-Sep-14 09:30N 33°04' W 009°20'713.9
2017-Sep-14 09:00N 33°09' W 009°13'813.5
2017-Sep-14 08:23N 33°13' W 009°05'513.4
2017-Sep-14 07:59N 33°17' W 009°00'1613.8
2017-Sep-14 06:47N 33°27' W 008°45'2513.8
2017-Sep-14 04:57N 33°42' W 008°20'714.0
2017-Sep-14 04:27N 33°42' W 008°12'31 2.4
2017-Sep-13 15:39N 33°36' W 007°36'0 0.1
2017-Sep-13 15:30N 33°36' W 007°36'18 9.3
2017-Sep-13 13:37N 33°53' W 007°27'217.5
2017-Sep-13 13:30N 33°54' W 007°26'918.0
2017-Sep-13 13:00N 34°02' W 007°21'918.1
2017-Sep-13 12:30N 34°10' W 007°15'918.1
2017-Sep-13 12:00N 34°18' W 007°10'917.9
2017-Sep-13 11:30N 34°26' W 007°05'918.0
2017-Sep-13 11:00N 34°33' W 006°59'1017.8
2017-Sep-13 10:28N 34°41' W 006°53'818.0
2017-Sep-13 10:00N 34°49' W 006°47'917.7
2017-Sep-13 09:30N 34°56' W 006°42'918.1
2017-Sep-13 08:59N 35°04' W 006°37'917.9
2017-Sep-13 08:30N 35°12' W 006°32'1417.8
2017-Sep-13 07:42N 35°25' W 006°24'418.0
2017-Sep-13 07:30N 35°28' W 006°22'4816.7
2017-Sep-13 04:39N 35°57' W 005°36'318.1
2017-Sep-13 04:30N 35°57' W 005°33'3 0.3
2017-Sep-12 16:10N 35°54' W 005°33'1 5.2
2017-Sep-12 16:00N 35°53' W 005°34'1 0.5
2017-Sep-12 14:49N 35°53' W 005°34'9 1.8
2017-Sep-12 09:57N 35°54' W 005°45'11515.8
2017-Sep-12 02:39N 36°17' W 008°04'718.6
2017-Sep-12 02:18N 36°19' W 008°12'618.5
2017-Sep-12 01:59N 36°20' W 008°19'1018.3
2017-Sep-12 01:26N 36°23' W 008°31'818.7
2017-Sep-12 01:01N 36°26' W 008°41'918.6
2017-Sep-12 00:31N 36°28' W 008°52'1019.1
2017-Sep-12 00:01N 36°30' W 009°03'1019.0
2017-Sep-11 23:31N 36°33' W 009°15'918.5
2017-Sep-11 23:00N 36°39' W 009°24'918.8
2017-Sep-11 22:30N 36°46' W 009°32'1019.1
2017-Sep-11 21:58N 36°56' W 009°35'919.2
2017-Sep-11 21:30N 37°04' W 009°38'1019.2
2017-Sep-11 21:00N 37°14' W 009°39'1019.6
2017-Sep-11 20:30N 37°23' W 009°42'1019.6
2017-Sep-11 19:59N 37°33' W 009°45'919.3
2017-Sep-11 19:31N 37°42' W 009°48'1019.0
2017-Sep-11 19:00N 37°51' W 009°51'918.9
2017-Sep-11 18:31N 38°00' W 009°54'918.9
2017-Sep-11 18:01N 38°10' W 009°57'1019.1
2017-Sep-11 17:30N 38°19' W 009°59'1019.2
2017-Sep-11 17:01N 38°28' W 010°01'1019.6
2017-Sep-11 16:30N 38°38' W 010°04'1019.3
2017-Sep-11 16:00N 38°48' W 010°05'919.0
2017-Sep-11 15:31N 38°57' W 010°06'918.8
2017-Sep-11 15:00N 39°06' W 010°06'1019.1
2017-Sep-11 14:30N 39°16' W 010°06'1119.3
2017-Sep-11 13:55N 39°27' W 010°06'1119.1
2017-Sep-11 13:22N 39°38' W 010°06'1418.9
2017-Sep-11 12:38N 39°52' W 010°06'619.1
2017-Sep-11 12:20N 39°58' W 010°06'1417.8
2017-Sep-11 11:33N 40°11' W 010°06'7914.1
2017-Sep-11 06:00N 41°30' W 010°06'20517.1 010 / 51018.0 5.4 19.016.419.0
2017-Sep-10 18:00N 44°48' W 008°54'34615.3 270 / 251013.0 5.4 20.016.220.0
2017-Sep-09 19:23N 49°33' W 004°06'614.8
2017-Sep-09 19:00N 49°35' W 003°58'815.1
2017-Sep-09 18:30N 49°39' W 003°48'815.7
2017-Sep-09 18:00N 49°43' W 003°38'816.3
2017-Sep-09 17:30N 49°47' W 003°27'714.7
2017-Sep-09 17:01N 49°51' W 003°17'713.4
2017-Sep-09 16:31N 49°54' W 003°08'714.3
2017-Sep-09 16:00N 49°58' W 002°58'714.8
2017-Sep-09 15:30N 50°00' W 002°47'815.2
2017-Sep-09 15:00N 50°02' W 002°36'1814.8
2017-Sep-09 13:47N 50°07' W 002°09'413.7
2017-Sep-09 13:30N 50°08' W 002°03'612.9
2017-Sep-09 13:00N 50°10' W 001°53'611.9
2017-Sep-09 12:30N 50°11' W 001°44'611.0
2017-Sep-09 12:00N 50°13' W 001°36'510.3
2017-Sep-09 11:30N 50°14' W 001°28'5 9.6
2017-Sep-09 11:00N 50°15' W 001°21'35 9.9
2017-Sep-09 07:26N 50°25' W 000°28'612.9
2017-Sep-09 07:00N 50°27' W 000°19'713.6
2017-Sep-09 06:30N 50°29' W 000°09'713.9
2017-Sep-09 06:01N 50°31' E 000°01'714.1
2017-Sep-09 05:31N 50°32' E 000°12'714.3
2017-Sep-09 05:00N 50°34' E 000°23'714.0
2017-Sep-09 04:30N 50°36' E 000°33'713.7
2017-Sep-09 04:00N 50°41' E 000°42'713.2
2017-Sep-09 03:30N 50°45' E 000°50'612.5
2017-Sep-09 03:00N 50°49' E 000°58'611.7
2017-Sep-09 02:30N 50°53' E 001°05'611.0
2017-Sep-09 02:00N 50°56' E 001°11'510.3
2017-Sep-09 01:30N 50°59' E 001°18'5 9.8
2017-Sep-09 01:00N 51°03' E 001°24'510.0
2017-Sep-09 00:30N 51°06' E 001°30'510.8
2017-Sep-09 00:00N 51°09' E 001°36'611.8
2017-Sep-08 23:31N 51°13' E 001°43'713.1
2017-Sep-08 23:00N 51°18' E 001°50'714.3
2017-Sep-08 22:30N 51°24' E 001°57'510.9
2017-Sep-08 22:00N 51°24' E 002°06'612.5
2017-Sep-08 21:30N 51°21' E 002°15'713.1
2017-Sep-08 21:00N 51°22' E 002°25'713.1
2017-Sep-08 20:30N 51°23' E 002°36'612.3
2017-Sep-08 20:01N 51°22' E 002°46'714.5
2017-Sep-08 19:30N 51°23' E 002°57'816.7
2017-Sep-08 19:00N 51°24' E 003°10'918.6
2017-Sep-08 18:30N 51°25' E 003°25'714.1
2017-Sep-08 18:00N 51°26' E 003°37'714.0
2017-Sep-08 17:30N 51°22' E 003°45'815.5
2017-Sep-08 17:00N 51°24' E 003°57'510.3
2017-Sep-08 16:30N 51°22' E 004°05'612.4
2017-Sep-08 16:00N 51°21' E 004°15'4 7.1
2017-Sep-08 15:29N 51°18' E 004°16'0 0.0
2017-Sep-08 14:59N 51°18' E 004°16'0 0.0
2017-Sep-08 14:29N 51°18' E 004°16'0 0.0
2017-Sep-08 13:59N 51°18' E 004°16'0 0.0
2017-Sep-08 13:29N 51°17' E 004°16'0 0.0
2017-Sep-08 12:56N 51°18' E 004°16'0 0.0
2017-Sep-08 12:29N 51°18' E 004°16'0 0.0
2017-Sep-08 11:59N 51°18' E 004°16'0 0.0
2017-Sep-08 11:29N 51°18' E 004°16'0 0.0
2017-Sep-08 10:59N 51°18' E 004°16'0 0.0
2017-Sep-08 10:29N 51°18' E 004°16'0 0.0
2017-Sep-08 09:59N 51°18' E 004°16'0 0.0
2017-Sep-08 09:29N 51°18' E 004°16'0 0.0
2017-Sep-08 08:59N 51°18' E 004°16'0 0.0
2017-Sep-08 08:29N 51°18' E 004°16'0 0.0
2017-Sep-08 07:59N 51°17' E 004°16'0 0.0
2017-Sep-08 07:29N 51°18' E 004°16'0 0.0
2017-Sep-08 06:59N 51°18' E 004°16'0 0.0
2017-Sep-08 06:29N 51°18' E 004°16'0 0.0
2017-Sep-08 05:59N 51°18' E 004°16'0 0.1
2017-Sep-08 05:29N 51°17' E 004°16'0 0.1
2017-Sep-08 04:59N 51°18' E 004°16'0 0.0
2017-Sep-08 04:29N 51°18' E 004°16'0 0.0
2017-Sep-08 03:59N 51°18' E 004°16'0 0.0
2017-Sep-08 03:29N 51°18' E 004°16'0 0.0
2017-Sep-08 02:59N 51°18' E 004°16'0 0.0
2017-Sep-08 02:29N 51°18' E 004°16'0 0.0
2017-Sep-08 01:59N 51°18' E 004°16'0 0.0
2017-Sep-08 01:29N 51°18' E 004°16'0 0.0
2017-Sep-08 00:59N 51°18' E 004°16'0 0.0
2017-Sep-08 00:29N 51°18' E 004°16'0 0.0
2017-Sep-07 23:59N 51°18' E 004°16'0 0.0
2017-Sep-07 23:29N 51°18' E 004°16'0 0.0
2017-Sep-07 22:56N 51°18' E 004°16'0 0.0
2017-Sep-07 22:29N 51°18' E 004°16'0 0.0
2017-Sep-07 21:59N 51°18' E 004°16'0 0.0
2017-Sep-07 21:29N 51°18' E 004°16'0 0.0
2017-Sep-07 20:59N 51°18' E 004°16'0 0.0
2017-Sep-07 20:29N 51°18' E 004°16'0 0.0
2017-Sep-07 19:59N 51°18' E 004°16'0 0.1
2017-Sep-07 19:31N 51°17' E 004°16'2 3.5
2017-Sep-07 19:01N 51°19' E 004°16'5 9.0
2017-Sep-07 18:31N 51°23' E 004°13'611.7
2017-Sep-07 18:00N 51°22' E 004°03'  
Track history (hours):
 
Tides and Currents Weather Stations Pressure Air Temp Water Temp Dewpoint Dewpoint Depression Visibility Wind Speed Wind Dir Waves Ship Positions

Ital Oriente

Last reported at 2017-Sep-17 18:00 UTC. Time now 2017-Sep-22 18:55 UTC.
Position N 17°00' W 017°48'.

Length 227 m; draft 10.5 m.

Type: Cargo ship. MMSI: 636091278.

Wind from 300 at 12 knots

Barometer 1011.0 mb
Air temperature 28.0 ° C
Visibility: greater than 5.4 NM
Dewpoint 21.8 ° C
Water temperature 28.0 ° C

Date/timePositionNaut miles runAvg speedWind from/ knotsBaromVisibWave heightAir tempDewpointWater temp
2017-Sep-17 18:00N 17°00' W 017°48'7813.0 300 / 121011.0 5.4 28.021.828.0
2017-Sep-17 12:00N 18°18' W 017°54'24213.4 340 / 131013.210.8 27.020.826.9
2017-Sep-16 18:00N 22°18' W 017°24'8113.5 340 / 191011.0 5.4 25.021.123.0
2017-Sep-16 12:00N 23°36' W 017°00'8213.7 340 / 101014.1 5.4 25.120.423.1
2017-Sep-16 06:00N 24°42' W 016°06'3814.3 050 / 111011.0 5.4 22.017.121.0
2017-Sep-16 03:22N 25°15' W 015°47'1613.6
2017-Sep-16 02:12N 25°28' W 015°37'313.6
2017-Sep-16 01:58N 25°31' W 015°35'2813.8
2017-Sep-15 23:55N 25°54' W 015°17'614.2
2017-Sep-15 23:30N 25°59' W 015°13'714.5
2017-Sep-15 22:59N 26°05' W 015°08'714.6
2017-Sep-15 22:29N 26°11' W 015°04'1014.5
2017-Sep-15 21:50N 26°19' W 014°58'514.2
2017-Sep-15 21:28N 26°23' W 014°54'1014.1
2017-Sep-15 20:47N 26°31' W 014°48'413.8
2017-Sep-15 20:30N 26°34' W 014°45'713.7
2017-Sep-15 20:00N 26°40' W 014°41'713.7
2017-Sep-15 19:29N 26°46' W 014°36'613.6
2017-Sep-15 19:00N 26°51' W 014°32'713.4
2017-Sep-15 18:29N 26°57' W 014°28'613.4
2017-Sep-15 18:00N 27°02' W 014°24'713.2
2017-Sep-15 17:30N 27°07' W 014°20'713.1
2017-Sep-15 17:00N 27°13' W 014°16'713.2
2017-Sep-15 16:30N 27°18' W 014°11'713.3
2017-Sep-15 16:00N 27°24' W 014°07'713.6
2017-Sep-15 15:28N 27°30' W 014°02'613.6
2017-Sep-15 15:00N 27°35' W 013°58'713.5
2017-Sep-15 14:30N 27°40' W 013°54'713.7
2017-Sep-15 14:00N 27°46' W 013°49'713.7
2017-Sep-15 13:30N 27°51' W 013°45'713.6
2017-Sep-15 13:00N 27°57' W 013°40'713.5
2017-Sep-15 12:30N 28°03' W 013°36'713.8
2017-Sep-15 12:00N 28°08' W 013°32'713.8
2017-Sep-15 11:30N 28°14' W 013°27'713.6
2017-Sep-15 11:00N 28°20' W 013°23'713.7
2017-Sep-15 10:30N 28°25' W 013°18'713.6
2017-Sep-15 10:00N 28°31' W 013°14'713.6
2017-Sep-15 09:30N 28°37' W 013°10'713.5
2017-Sep-15 09:00N 28°42' W 013°06'713.9
2017-Sep-15 08:30N 28°48' W 013°01'918.1
2017-Sep-15 08:00N 28°55' W 012°55'713.9
2017-Sep-15 07:30N 29°01' W 012°51'713.4
2017-Sep-15 07:00N 29°07' W 012°46'713.3
2017-Sep-15 06:31N 29°12' W 012°42'713.4
2017-Sep-15 06:00N 29°18' W 012°38'713.4
2017-Sep-15 05:30N 29°23' W 012°33'713.6
2017-Sep-15 05:01N 29°29' W 012°29'713.8
2017-Sep-15 04:30N 29°35' W 012°25'713.6
2017-Sep-15 04:00N 29°40' W 012°20'713.5
2017-Sep-15 03:30N 29°46' W 012°16'913.8
2017-Sep-15 02:52N 29°53' W 012°10'514.1
2017-Sep-15 02:30N 29°57' W 012°07'714.1
2017-Sep-15 02:01N 30°03' W 012°02'713.8
2017-Sep-15 01:30N 30°08' W 011°57'713.8
2017-Sep-15 01:00N 30°14' W 011°53'713.7
2017-Sep-15 00:30N 30°20' W 011°48'713.7
2017-Sep-15 00:00N 30°25' W 011°44'713.5
2017-Sep-14 23:30N 30°31' W 011°39'713.9
2017-Sep-14 23:00N 30°36' W 011°34'713.9
2017-Sep-14 22:30N 30°42' W 011°29'813.5
2017-Sep-14 21:56N 30°48' W 011°24'614.0
2017-Sep-14 21:30N 30°53' W 011°20'714.1
2017-Sep-14 21:00N 30°59' W 011°16'714.6
2017-Sep-14 20:30N 31°05' W 011°11'714.8
2017-Sep-14 20:00N 31°10' W 011°05'714.1
2017-Sep-14 19:30N 31°16' W 011°00'713.8
2017-Sep-14 19:00N 31°22' W 010°56'713.7
2017-Sep-14 18:30N 31°27' W 010°51'714.0
2017-Sep-14 18:00N 31°33' W 010°46'714.1
2017-Sep-14 17:31N 31°39' W 010°42'714.0
2017-Sep-14 17:00N 31°45' W 010°37'713.8
2017-Sep-14 16:30N 31°50' W 010°33'713.8
2017-Sep-14 16:00N 31°56' W 010°28'713.9
2017-Sep-14 15:29N 32°02' W 010°23'613.6
2017-Sep-14 15:00N 32°07' W 010°19'713.5
2017-Sep-14 14:31N 32°13' W 010°14'713.6
2017-Sep-14 14:00N 32°19' W 010°09'713.8
2017-Sep-14 13:31N 32°24' W 010°05'713.9
2017-Sep-14 13:00N 32°30' W 010°00'713.9
2017-Sep-14 12:30N 32°36' W 009°55'2448.5
2017-Sep-14 12:00N 32°12' W 009°48'31167.9 020 / 131020.510.8 28.5 6.622.6
2017-Sep-14 11:48N 32°43' W 009°49'614.0
2017-Sep-14 11:22N 32°48' W 009°44'513.6
2017-Sep-14 10:59N 32°52' W 009°40'714.0
2017-Sep-14 10:29N 32°56' W 009°33'713.8
2017-Sep-14 09:59N 33°00' W 009°26'714.0
2017-Sep-14 09:30N 33°04' W 009°20'713.9
2017-Sep-14 09:00N 33°09' W 009°13'813.5
2017-Sep-14 08:23N 33°13' W 009°05'513.4
2017-Sep-14 07:59N 33°17' W 009°00'1613.8
2017-Sep-14 06:47N 33°27' W 008°45'2513.8
2017-Sep-14 04:57N 33°42' W 008°20'714.0
2017-Sep-14 04:27N 33°42' W 008°12'31 2.4
2017-Sep-13 15:39N 33°36' W 007°36'0 0.1
2017-Sep-13 15:30N 33°36' W 007°36'18 9.3
2017-Sep-13 13:37N 33°53' W 007°27'217.5
2017-Sep-13 13:30N 33°54' W 007°26'918.0
2017-Sep-13 13:00N 34°02' W 007°21'918.1
2017-Sep-13 12:30N 34°10' W 007°15'918.1
2017-Sep-13 12:00N 34°18' W 007°10'917.9
2017-Sep-13 11:30N 34°26' W 007°05'918.0
2017-Sep-13 11:00N 34°33' W 006°59'1017.8
2017-Sep-13 10:28N 34°41' W 006°53'818.0
2017-Sep-13 10:00N 34°49' W 006°47'917.7
2017-Sep-13 09:30N 34°56' W 006°42'918.1
2017-Sep-13 08:59N 35°04' W 006°37'917.9
2017-Sep-13 08:30N 35°12' W 006°32'1417.8
2017-Sep-13 07:42N 35°25' W 006°24'418.0
2017-Sep-13 07:30N 35°28' W 006°22'4816.7
2017-Sep-13 04:39N 35°57' W 005°36'318.1
2017-Sep-13 04:30N 35°57' W 005°33'3 0.3
2017-Sep-12 16:10N 35°54' W 005°33'1 5.2
2017-Sep-12 16:00N 35°53' W 005°34'1 0.5
2017-Sep-12 14:49N 35°53' W 005°34'9 1.8
2017-Sep-12 09:57N 35°54' W 005°45'11515.8
2017-Sep-12 02:39N 36°17' W 008°04'718.6
2017-Sep-12 02:18N 36°19' W 008°12'618.5
2017-Sep-12 01:59N 36°20' W 008°19'1018.3
2017-Sep-12 01:26N 36°23' W 008°31'818.7
2017-Sep-12 01:01N 36°26' W 008°41'918.6
2017-Sep-12 00:31N 36°28' W 008°52'1019.1
2017-Sep-12 00:01N 36°30' W 009°03'1019.0
2017-Sep-11 23:31N 36°33' W 009°15'918.5
2017-Sep-11 23:00N 36°39' W 009°24'918.8
2017-Sep-11 22:30N 36°46' W 009°32'1019.1
2017-Sep-11 21:58N 36°56' W 009°35'919.2
2017-Sep-11 21:30N 37°04' W 009°38'1019.2
2017-Sep-11 21:00N 37°14' W 009°39'1019.6
2017-Sep-11 20:30N 37°23' W 009°42'1019.6
2017-Sep-11 19:59N 37°33' W 009°45'919.3
2017-Sep-11 19:31N 37°42' W 009°48'1019.0
2017-Sep-11 19:00N 37°51' W 009°51'918.9
2017-Sep-11 18:31N 38°00' W 009°54'918.9
2017-Sep-11 18:01N 38°10' W 009°57'1019.1
2017-Sep-11 17:30N 38°19' W 009°59'1019.2
2017-Sep-11 17:01N 38°28' W 010°01'1019.6
2017-Sep-11 16:30N 38°38' W 010°04'1019.3
2017-Sep-11 16:00N 38°48' W 010°05'919.0
2017-Sep-11 15:31N 38°57' W 010°06'918.8
2017-Sep-11 15:00N 39°06' W 010°06'1019.1
2017-Sep-11 14:30N 39°16' W 010°06'1119.3
2017-Sep-11 13:55N 39°27' W 010°06'1119.1
2017-Sep-11 13:22N 39°38' W 010°06'1418.9
2017-Sep-11 12:38N 39°52' W 010°06'619.1
2017-Sep-11 12:20N 39°58' W 010°06'1417.8
2017-Sep-11 11:33N 40°11' W 010°06'7914.1
2017-Sep-11 06:00N 41°30' W 010°06'20517.1 010 / 51018.0 5.4 19.016.419.0
2017-Sep-10 18:00N 44°48' W 008°54'34615.3 270 / 251013.0 5.4 20.016.220.0
2017-Sep-09 19:23N 49°33' W 004°06'614.8
2017-Sep-09 19:00N 49°35' W 003°58'815.1
2017-Sep-09 18:30N 49°39' W 003°48'815.7
2017-Sep-09 18:00N 49°43' W 003°38'816.3
2017-Sep-09 17:30N 49°47' W 003°27'714.7
2017-Sep-09 17:01N 49°51' W 003°17'713.4
2017-Sep-09 16:31N 49°54' W 003°08'714.3
2017-Sep-09 16:00N 49°58' W 002°58'714.8
2017-Sep-09 15:30N 50°00' W 002°47'815.2
2017-Sep-09 15:00N 50°02' W 002°36'1814.8
2017-Sep-09 13:47N 50°07' W 002°09'413.7
2017-Sep-09 13:30N 50°08' W 002°03'612.9
2017-Sep-09 13:00N 50°10' W 001°53'611.9
2017-Sep-09 12:30N 50°11' W 001°44'611.0
2017-Sep-09 12:00N 50°13' W 001°36'510.3
2017-Sep-09 11:30N 50°14' W 001°28'5 9.6
2017-Sep-09 11:00N 50°15' W 001°21'35 9.9
2017-Sep-09 07:26N 50°25' W 000°28'612.9
2017-Sep-09 07:00N 50°27' W 000°19'713.6
2017-Sep-09 06:30N 50°29' W 000°09'713.9
2017-Sep-09 06:01N 50°31' E 000°01'714.1
2017-Sep-09 05:31N 50°32' E 000°12'714.3
2017-Sep-09 05:00N 50°34' E 000°23'714.0
2017-Sep-09 04:30N 50°36' E 000°33'713.7
2017-Sep-09 04:00N 50°41' E 000°42'713.2
2017-Sep-09 03:30N 50°45' E 000°50'612.5
2017-Sep-09 03:00N 50°49' E 000°58'611.7
2017-Sep-09 02:30N 50°53' E 001°05'611.0
2017-Sep-09 02:00N 50°56' E 001°11'510.3
2017-Sep-09 01:30N 50°59' E 001°18'5 9.8
2017-Sep-09 01:00N 51°03' E 001°24'510.0
2017-Sep-09 00:30N 51°06' E 001°30'510.8
2017-Sep-09 00:00N 51°09' E 001°36'611.8
2017-Sep-08 23:31N 51°13' E 001°43'713.1
2017-Sep-08 23:00N 51°18' E 001°50'714.3
2017-Sep-08 22:30N 51°24' E 001°57'510.9
2017-Sep-08 22:00N 51°24' E 002°06'612.5
2017-Sep-08 21:30N 51°21' E 002°15'713.1
2017-Sep-08 21:00N 51°22' E 002°25'713.1
2017-Sep-08 20:30N 51°23' E 002°36'612.3
2017-Sep-08 20:01N 51°22' E 002°46'714.5
2017-Sep-08 19:30N 51°23' E 002°57'816.7
2017-Sep-08 19:00N 51°24' E 003°10'918.6
2017-Sep-08 18:30N 51°25' E 003°25'714.1
2017-Sep-08 18:00N 51°26' E 003°37'714.0
2017-Sep-08 17:30N 51°22' E 003°45'815.5
2017-Sep-08 17:00N 51°24' E 003°57'510.3
2017-Sep-08 16:30N 51°22' E 004°05'612.4
2017-Sep-08 16:00N 51°21' E 004°15'4 7.1
2017-Sep-08 15:29N 51°18' E 004°16'0 0.0
2017-Sep-08 14:59N 51°18' E 004°16'0 0.0
2017-Sep-08 14:29N 51°18' E 004°16'0 0.0
2017-Sep-08 13:59N 51°18' E 004°16'0 0.0
2017-Sep-08 13:29N 51°17' E 004°16'0 0.0
2017-Sep-08 12:56N 51°18' E 004°16'0 0.0
2017-Sep-08 12:29N 51°18' E 004°16'0 0.0
2017-Sep-08 11:59N 51°18' E 004°16'0 0.0
2017-Sep-08 11:29N 51°18' E 004°16'0 0.0
2017-Sep-08 10:59N 51°18' E 004°16'0 0.0
2017-Sep-08 10:29N 51°18' E 004°16'0 0.0
2017-Sep-08 09:59N 51°18' E 004°16'0 0.0
2017-Sep-08 09:29N 51°18' E 004°16'0 0.0
2017-Sep-08 08:59N 51°18' E 004°16'0 0.0
2017-Sep-08 08:29N 51°18' E 004°16'0 0.0
2017-Sep-08 07:59N 51°17' E 004°16'0 0.0
2017-Sep-08 07:29N 51°18' E 004°16'0 0.0
2017-Sep-08 06:59N 51°18' E 004°16'0 0.0
2017-Sep-08 06:29N 51°18' E 004°16'0 0.0
2017-Sep-08 05:59N 51°18' E 004°16'0 0.1
2017-Sep-08 05:29N 51°17' E 004°16'0 0.1
2017-Sep-08 04:59N 51°18' E 004°16'0 0.0
2017-Sep-08 04:29N 51°18' E 004°16'0 0.0
2017-Sep-08 03:59N 51°18' E 004°16'0 0.0
2017-Sep-08 03:29N 51°18' E 004°16'0 0.0
2017-Sep-08 02:59N 51°18' E 004°16'0 0.0
2017-Sep-08 02:29N 51°18' E 004°16'0 0.0
2017-Sep-08 01:59N 51°18' E 004°16'0 0.0
2017-Sep-08 01:29N 51°18' E 004°16'0 0.0
2017-Sep-08 00:59N 51°18' E 004°16'0 0.0
2017-Sep-08 00:29N 51°18' E 004°16'0 0.0
2017-Sep-07 23:59N 51°18' E 004°16'0 0.0
2017-Sep-07 23:29N 51°18' E 004°16'0 0.0
2017-Sep-07 22:56N 51°18' E 004°16'0 0.0
2017-Sep-07 22:29N 51°18' E 004°16'0 0.0
2017-Sep-07 21:59N 51°18' E 004°16'0 0.0
2017-Sep-07 21:29N 51°18' E 004°16'0 0.0
2017-Sep-07 20:59N 51°18' E 004°16'0 0.0
2017-Sep-07 20:29N 51°18' E 004°16'0 0.0
2017-Sep-07 19:59N 51°18' E 004°16'0 0.1
2017-Sep-07 19:31N 51°17' E 004°16'2 3.5
2017-Sep-07 19:01N 51°19' E 004°16'5 9.0
2017-Sep-07 18:31N 51°23' E 004°13'611.7
2017-Sep-07 18:00N 51°22' E 004°03'  

Dump ship's entire track history